Time;durP1;ratioP1;P1;durP2;ratioP2;P2;SDS_P1;SDS_P2;PMS_P1;PMS_P2;Temp;Humidity;BMP_temperature;BMP_pressure;BME280_temperature;BME280_humidity;BME280_pressure;Samples;Min_cycle;Max_cycle;Signal;HPM_P1;HPM_P2
2022/09/17 00:02:06;;;;;;;155.63;99.03;;;;;;;;;;5009527;28;20282;-55
2022/09/17 00:04:32;;;;;;;172.90;104.40;;;;;;;;;;5010548;28;20200;-55
2022/09/17 00:06:57;;;;;;;147.03;97.23;;;;;;;;;;5017355;28;20808;-55
2022/09/17 00:09:23;;;;;;;168.83;101.70;;;;;;;;;;5020151;28;20236;-55
2022/09/17 00:11:49;;;;;;;196.20;111.67;;;;;;;;;;5021860;28;20694;-54
2022/09/17 00:14:17;;;;;;;195.70;111.73;;;;;;;;;;5014996;28;20690;-55
2022/09/17 00:16:44;;;;;;;166.70;101.57;;;;;;;;;;5013184;28;20628;-54
2022/09/17 00:19:15;;;;;;;192.67;112.33;;;;;;;;;;5009145;28;20199;-55
2022/09/17 00:21:41;;;;;;;250.07;129.10;;;;;;;;;;5005863;28;20660;-54
2022/09/17 00:24:07;;;;;;;174.93;104.50;;;;;;;;;;5013720;28;20583;-55
2022/09/17 00:26:34;;;;;;;191.40;108.20;;;;;;;;;;5010154;28;20196;-54
2022/09/17 00:29:00;;;;;;;162.80;99.13;;;;;;;;;;5015505;28;20294;-55
2022/09/17 00:31:26;;;;;;;151.43;94.07;;;;;;;;;;5023334;28;20645;-54
2022/09/17 00:33:52;;;;;;;199.97;111.80;;;;;;;;;;5015544;28;20715;-54
2022/09/17 00:36:19;;;;;;;161.87;97.57;;;;;;;;;;5019048;28;20699;-54
2022/09/17 00:38:48;;;;;;;154.00;96.40;;;;;;;;;;5017241;28;20181;-54
2022/09/17 00:41:14;;;;;;;165.77;99.47;;;;;;;;;;5026341;28;20180;-54
2022/09/17 00:43:47;;;;;;;169.00;103.83;;;;;;;;;;5017318;28;20681;-54
2022/09/17 00:46:32;;;;;;;224.37;120.37;;;;;;;;;;5017173;28;20675;-54
2022/09/17 00:49:02;;;;;;;167.80;98.87;;;;;;;;;;5018919;28;20203;-54
2022/09/17 00:51:33;;;;;;;153.13;93.83;;;;;;;;;;5021542;28;20744;-54
2022/09/17 00:54:00;;;;;;;159.47;97.83;;;;;;;;;;5022201;28;20716;-55
2022/09/17 00:56:28;;;;;;;191.97;107.67;;;;;;;;;;5015263;28;20193;-55
2022/09/17 00:58:54;;;;;;;141.70;91.07;;;;;;;;;;5016667;28;20196;-54
2022/09/17 01:01:20;;;;;;;214.10;119.13;;;;;;;;;;5014344;28;20203;-55
2022/09/17 01:03:46;;;;;;;166.43;102.60;;;;;;;;;;5022998;28;20195;-55
2022/09/17 01:06:31;;;;;;;181.17;105.60;;;;;;;;;;5015301;28;20184;-55
2022/09/17 01:09:09;;;;;;;156.93;95.60;;;;;;;;;;5019641;28;20673;-54
2022/09/17 01:11:48;;;;;;;142.23;94.33;;;;;;;;;;5015753;28;20238;-54
2022/09/17 01:14:17;;;;;;;203.43;114.23;;;;;;;;;;5021527;28;20203;-55
2022/09/17 01:16:46;;;;;;;153.00;94.90;;;;;;;;;;5018050;28;20276;-54
2022/09/17 01:19:12;;;;;;;132.73;92.50;;;;;;;;;;5012828;28;20191;-54
2022/09/17 01:22:00;;;;;;;121.50;87.53;;;;;;;;;;5022043;28;20425;-55
2022/09/17 01:24:43;;;;;;;174.60;106.13;;;;;;;;;;5017746;28;20246;-55
2022/09/17 01:27:28;;;;;;;179.50;108.97;;;;;;;;;;5014574;28;20184;-55
2022/09/17 01:30:06;;;;;;;154.27;100.30;;;;;;;;;;5018039;28;20209;-55
2022/09/17 01:32:39;;;;;;;161.03;100.47;;;;;;;;;;5014096;28;20193;-54
2022/09/17 01:35:12;;;;;;;138.77;90.57;;;;;;;;;;5019533;28;20204;-54
2022/09/17 01:37:46;;;;;;;167.60;100.70;;;;;;;;;;5026282;28;20661;-54
2022/09/17 01:40:17;;;;;;;127.30;88.60;;;;;;;;;;5022386;28;20208;-54
2022/09/17 01:42:49;;;;;;;123.00;87.33;;;;;;;;;;5021274;28;20242;-54
2022/09/17 01:45:18;;;;;;;184.40;105.40;;;;;;;;;;5015538;28;20204;-55
2022/09/17 01:47:47;;;;;;;180.60;106.03;;;;;;;;;;5016044;28;20192;-55
2022/09/17 01:50:20;;;;;;;203.27;112.53;;;;;;;;;;4994558;28;20213;-55
2022/09/17 01:52:48;;;;;;;142.73;93.57;;;;;;;;;;5022090;28;20184;-55
2022/09/17 01:55:15;;;;;;;178.03;104.70;;;;;;;;;;5014047;28;20402;-55
2022/09/17 01:57:48;;;;;;;139.60;91.67;;;;;;;;;;5020329;28;20545;-54
2022/09/17 02:00:16;;;;;;;175.10;105.33;;;;;;;;;;5025834;28;20323;-55
2022/09/17 02:03:00;;;;;;;158.87;100.17;;;;;;;;;;5014306;28;20497;-55
2022/09/17 02:05:39;;;;;;;214.43;118.10;;;;;;;;;;5010935;28;20246;-55
2022/09/17 02:08:10;;;;;;;158.00;96.90;;;;;;;;;;5016250;28;20587;-54
2022/09/17 02:10:42;;;;;;;147.77;94.63;;;;;;;;;;5019336;28;20270;-54
2022/09/17 02:13:10;;;;;;;168.03;101.50;;;;;;;;;;5021313;28;20189;-54
2022/09/17 02:15:39;;;;;;;215.63;121.37;;;;;;;;;;5015277;28;20214;-55
2022/09/17 02:18:14;;;;;;;188.03;109.90;;;;;;;;;;5017470;28;20259;-54
2022/09/17 02:20:45;;;;;;;131.20;90.70;;;;;;;;;;5016209;28;20192;-55
2022/09/17 02:23:16;;;;;;;141.17;94.43;;;;;;;;;;5015009;28;20242;-55
2022/09/17 02:26:02;;;;;;;183.60;105.80;;;;;;;;;;5023880;28;20504;-55
2022/09/17 02:28:34;;;;;;;192.50;110.07;;;;;;;;;;5019394;28;20192;-55
2022/09/17 02:31:00;;;;;;;165.83;102.67;;;;;;;;;;5011562;28;20239;-55
2022/09/17 02:33:27;;;;;;;156.73;98.03;;;;;;;;;;5019970;28;20450;-55
2022/09/17 02:35:53;;;;;;;149.83;96.40;;;;;;;;;;5022245;28;20672;-54
2022/09/17 02:38:26;;;;;;;184.83;107.70;;;;;;;;;;5017042;28;20176;-54
2022/09/17 02:41:04;;;;;;;167.47;103.37;;;;;;;;;;5014316;28;20553;-55
2022/09/17 02:43:49;;;;;;;159.20;98.60;;;;;;;;;;5015238;28;20224;-54
2022/09/17 02:46:35;;;;;;;194.77;112.17;;;;;;;;;;5017156;28;20188;-55
2022/09/17 02:49:08;;;;;;;271.10;136.03;;;;;;;;;;5016952;28;20222;-55
2022/09/17 02:51:45;;;;;;;165.77;100.33;;;;;;;;;;5017861;28;20187;-54
2022/09/17 02:54:17;;;;;;;196.17;109.70;;;;;;;;;;5017707;28;20210;-55
2022/09/17 02:56:56;;;;;;;136.47;91.13;;;;;;;;;;5020723;28;20534;-55
2022/09/17 02:59:29;;;;;;;193.73;109.27;;;;;;;;;;5020605;28;20278;-55
2022/09/17 03:01:58;;;;;;;154.83;101.77;;;;;;;;;;5017000;28;20250;-54
2022/09/17 03:04:26;;;;;;;167.50;103.90;;;;;;;;;;5012682;28;20227;-55
2022/09/17 03:06:52;;;;;;;166.23;102.23;;;;;;;;;;5015270;28;20267;-54
2022/09/17 03:09:18;;;;;;;163.50;103.00;;;;;;;;;;5015462;28;20216;-55
2022/09/17 03:11:44;;;;;;;144.47;95.23;;;;;;;;;;5016094;28;20668;-55
2022/09/17 03:14:10;;;;;;;196.13;110.33;;;;;;;;;;5014559;28;20581;-54
2022/09/17 03:16:36;;;;;;;202.83;116.40;;;;;;;;;;5011740;28;20184;-55
2022/09/17 03:19:02;;;;;;;158.10;101.97;;;;;;;;;;5021731;28;20665;-55
2022/09/17 03:21:28;;;;;;;184.40;108.33;;;;;;;;;;5016481;28;20191;-55
2022/09/17 03:23:54;;;;;;;132.50;92.20;;;;;;;;;;5020239;28;20192;-55
2022/09/17 03:26:20;;;;;;;196.70;113.33;;;;;;;;;;5016272;28;20548;-54
2022/09/17 03:28:46;;;;;;;160.77;98.50;;;;;;;;;;5023996;28;20481;-54
2022/09/17 03:31:12;;;;;;;163.77;98.53;;;;;;;;;;5016340;28;20554;-55
2022/09/17 03:33:38;;;;;;;216.57;114.03;;;;;;;;;;5014480;28;20177;-55
2022/09/17 03:36:04;;;;;;;160.83;99.27;;;;;;;;;;5017931;28;20235;-54
2022/09/17 03:38:31;;;;;;;162.47;100.13;;;;;;;;;;5017508;28;20238;-54
2022/09/17 03:41:01;;;;;;;148.37;94.83;;;;;;;;;;5003550;28;20184;-55
2022/09/17 03:43:28;;;;;;;125.10;88.67;;;;;;;;;;5020297;28;20668;-54
2022/09/17 03:45:54;;;;;;;185.73;106.97;;;;;;;;;;5016836;28;20255;-54
2022/09/17 03:48:20;;;;;;;198.23;109.30;;;;;;;;;;5013973;28;20184;-55
2022/09/17 03:50:46;;;;;;;168.13;100.13;;;;;;;;;;5014083;28;20216;-54
2022/09/17 03:53:12;;;;;;;148.70;95.00;;;;;;;;;;5016646;28;20185;-54
2022/09/17 03:55:38;;;;;;;157.27;97.73;;;;;;;;;;5018752;28;20196;-54
2022/09/17 03:58:04;;;;;;;149.97;96.27;;;;;;;;;;5020367;28;20302;-55
2022/09/17 04:00:30;;;;;;;157.17;96.13;;;;;;;;;;5026465;28;20276;-54
2022/09/17 04:02:56;;;;;;;148.03;96.80;;;;;;;;;;5018566;28;20275;-54
2022/09/17 04:05:22;;;;;;;223.20;118.17;;;;;;;;;;5011419;28;20213;-54
2022/09/17 04:07:48;;;;;;;142.93;96.40;;;;;;;;;;5011537;28;20241;-55
2022/09/17 04:10:14;;;;;;;151.50;98.23;;;;;;;;;;5022445;28;20257;-54
2022/09/17 04:12:40;;;;;;;146.23;98.73;;;;;;;;;;5023144;28;20586;-55
2022/09/17 04:15:06;;;;;;;157.33;99.73;;;;;;;;;;5027893;28;20274;-54
2022/09/17 04:17:32;;;;;;;151.77;101.20;;;;;;;;;;5027052;28;20184;-54
2022/09/17 04:19:58;;;;;;;152.53;100.97;;;;;;;;;;5028778;28;20679;-54
2022/09/17 04:22:25;;;;;;;151.90;100.23;;;;;;;;;;5024779;28;20191;-54
2022/09/17 04:24:51;;;;;;;151.40;101.07;;;;;;;;;;5029232;28;20231;-54
2022/09/17 04:27:16;;;;;;;183.93;111.63;;;;;;;;;;5024007;28;20758;-55
2022/09/17 04:29:42;;;;;;;247.77;128.90;;;;;;;;;;5019814;28;20433;-54
2022/09/17 04:32:08;;;;;;;161.63;103.53;;;;;;;;;;5032985;28;20182;-55
2022/09/17 04:34:34;;;;;;;149.73;99.63;;;;;;;;;;5024650;28;20258;-54
2022/09/17 04:37:00;;;;;;;110.93;88.37;;;;;;;;;;5025481;28;20253;-54
2022/09/17 04:39:26;;;;;;;158.90;101.57;;;;;;;;;;5024905;28;20184;-54
2022/09/17 04:41:52;;;;;;;147.77;96.90;;;;;;;;;;5022577;28;20266;-54
2022/09/17 04:44:18;;;;;;;157.50;101.23;;;;;;;;;;5019940;28;20213;-55
2022/09/17 04:46:44;;;;;;;154.77;98.80;;;;;;;;;;5024077;28;20192;-55
2022/09/17 04:49:11;;;;;;;132.63;92.17;;;;;;;;;;5023487;28;20752;-55
2022/09/17 04:51:37;;;;;;;198.03;116.03;;;;;;;;;;5019046;28;20208;-54
2022/09/17 04:54:03;;;;;;;161.63;101.53;;;;;;;;;;5023199;28;20204;-54
2022/09/17 04:56:29;;;;;;;192.80;110.40;;;;;;;;;;5021932;28;20715;-54
2022/09/17 04:58:55;;;;;;;164.97;100.23;;;;;;;;;;5021331;28;20316;-54
2022/09/17 05:01:20;;;;;;;142.87;95.00;;;;;;;;;;5024581;28;20208;-54
2022/09/17 05:03:46;;;;;;;178.67;107.37;;;;;;;;;;5026401;28;20188;-54
2022/09/17 05:06:12;;;;;;;156.63;100.07;;;;;;;;;;5027785;28;20727;-54
2022/09/17 05:08:38;;;;;;;149.93;97.27;;;;;;;;;;5022972;28;20208;-54
2022/09/17 05:11:04;;;;;;;167.60;103.50;;;;;;;;;;5027539;28;20185;-54
2022/09/17 05:13:30;;;;;;;169.47;103.70;;;;;;;;;;5021102;28;20289;-54
2022/09/17 05:15:56;;;;;;;133.30;94.63;;;;;;;;;;5017200;28;20600;-54
2022/09/17 05:18:22;;;;;;;196.17;115.40;;;;;;;;;;5022600;28;20211;-54
2022/09/17 05:20:48;;;;;;;153.83;102.23;;;;;;;;;;5018240;28;20219;-54
2022/09/17 05:23:14;;;;;;;178.37;107.60;;;;;;;;;;5024922;28;20216;-54
2022/09/17 05:25:40;;;;;;;224.83;120.60;;;;;;;;;;5018495;28;20299;-54
2022/09/17 05:28:06;;;;;;;146.40;98.17;;;;;;;;;;5019294;28;20321;-54
2022/09/17 05:30:32;;;;;;;130.33;91.03;;;;;;;;;;5014654;28;20199;-54
2022/09/17 05:33:02;;;;;;;189.97;108.03;;;;;;;;;;5019606;28;20186;-55
2022/09/17 05:35:28;;;;;;;184.77;106.67;;;;;;;;;;5023020;28;20235;-54
2022/09/17 05:37:58;;;;;;;171.30;102.00;;;;;;;;;;5013629;28;20333;-54
2022/09/17 05:40:24;;;;;;;144.57;97.30;;;;;;;;;;5017608;28;20287;-54
2022/09/17 05:42:50;;;;;;;156.57;97.83;;;;;;;;;;5013091;28;20420;-54
2022/09/17 05:45:16;;;;;;;165.80;103.27;;;;;;;;;;5021996;28;20204;-54
2022/09/17 05:47:41;;;;;;;183.77;106.47;;;;;;;;;;5020805;28;20251;-54
2022/09/17 05:50:08;;;;;;;160.93;101.90;;;;;;;;;;5021914;28;20212;-54
2022/09/17 05:52:34;;;;;;;159.33;103.43;;;;;;;;;;5024596;28;20181;-54
2022/09/17 05:54:59;;;;;;;150.23;102.03;;;;;;;;;;5019217;28;20208;-54
2022/09/17 05:57:28;;;;;;;164.77;106.53;;;;;;;;;;5020852;28;20173;-54
2022/09/17 05:59:54;;;;;;;153.50;102.53;;;;;;;;;;5026520;28;20184;-54
2022/09/17 06:02:21;;;;;;;170.17;108.47;;;;;;;;;;5027371;28;20219;-54
2022/09/17 06:04:46;;;;;;;159.07;102.27;;;;;;;;;;5021962;28;20211;-54
2022/09/17 06:07:12;;;;;;;172.80;108.80;;;;;;;;;;5030547;28;20188;-54
2022/09/17 06:09:41;;;;;;;176.07;110.07;;;;;;;;;;5026122;28;20296;-54
2022/09/17 06:12:07;;;;;;;118.87;92.90;;;;;;;;;;5027781;28;20461;-54
2022/09/17 06:14:33;;;;;;;138.73;97.53;;;;;;;;;;5024157;28;20462;-54
2022/09/17 06:16:59;;;;;;;176.00;105.00;;;;;;;;;;5023652;28;20335;-54
2022/09/17 06:19:25;;;;;;;205.00;116.50;;;;;;;;;;5019179;28;20191;-54
2022/09/17 06:21:51;;;;;;;162.67;102.70;;;;;;;;;;5028847;28;20188;-54
2022/09/17 06:24:17;;;;;;;150.70;98.03;;;;;;;;;;5031142;28;20273;-54
2022/09/17 06:26:43;;;;;;;186.73;110.63;;;;;;;;;;5009983;28;20204;-55
2022/09/17 06:29:09;;;;;;;245.00;131.03;;;;;;;;;;5010939;28;20212;-56
2022/09/17 06:31:35;;;;;;;179.77;114.57;;;;;;;;;;5024144;28;20228;-55
2022/09/17 06:34:01;;;;;;;263.87;139.53;;;;;;;;;;5015675;28;20196;-56
2022/09/17 06:36:27;;;;;;;220.87;125.07;;;;;;;;;;5012811;28;20192;-55
2022/09/17 06:38:53;;;;;;;226.43;126.83;;;;;;;;;;5024313;28;20234;-55
2022/09/17 06:41:19;;;;;;;167.60;107.50;;;;;;;;;;5006722;28;20184;-55
2022/09/17 06:43:44;;;;;;;194.97;116.20;;;;;;;;;;5020561;28;20228;-56
2022/09/17 06:46:11;;;;;;;236.73;120.00;;;;;;;;;;5014110;28;20215;-56
2022/09/17 06:48:37;;;;;;;304.07;138.17;;;;;;;;;;5015233;28;20271;-56
2022/09/17 06:51:04;;;;;;;156.33;100.63;;;;;;;;;;5021057;28;20234;-56
2022/09/17 06:53:30;;;;;;;173.73;107.53;;;;;;;;;;5022658;28;20195;-54
2022/09/17 06:55:58;;;;;;;153.77;103.40;;;;;;;;;;5025558;28;20607;-54
2022/09/17 06:58:24;;;;;;;160.90;108.70;;;;;;;;;;5024470;28;20565;-54
2022/09/17 07:00:50;;;;;;;154.87;104.97;;;;;;;;;;5019147;28;20215;-54
2022/09/17 07:03:16;;;;;;;169.43;109.03;;;;;;;;;;5027177;28;20191;-57
2022/09/17 07:05:43;;;;;;;135.93;102.27;;;;;;;;;;5029228;28;20727;-52
2022/09/17 07:08:10;;;;;;;160.73;104.43;;;;;;;;;;5027294;28;20181;-52
2022/09/17 07:10:36;;;;;;;166.47;106.80;;;;;;;;;;5035215;28;20231;-53
2022/09/17 07:13:03;;;;;;;145.80;98.63;;;;;;;;;;5050055;28;20182;-53
2022/09/17 07:15:29;;;;;;;168.33;109.10;;;;;;;;;;5024903;28;20227;-53
2022/09/17 07:17:55;;;;;;;153.03;106.63;;;;;;;;;;5031915;28;20176;-53
2022/09/17 07:20:21;;;;;;;118.97;98.07;;;;;;;;;;5025788;28;20188;-52
2022/09/17 07:22:56;;;;;;;154.70;106.57;;;;;;;;;;5025209;28;20338;-54
2022/09/17 07:25:23;;;;;;;207.80;127.63;;;;;;;;;;5023339;28;20226;-54
2022/09/17 07:27:49;;;;;;;182.60;121.30;;;;;;;;;;5023006;28;20194;-54
2022/09/17 07:30:15;;;;;;;167.90;115.70;;;;;;;;;;5018982;28;20296;-53
2022/09/17 07:32:41;;;;;;;160.87;110.53;;;;;;;;;;5023784;28;20188;-54
2022/09/17 07:35:07;;;;;;;220.83;132.60;;;;;;;;;;5017989;28;20235;-53
2022/09/17 07:37:33;;;;;;;190.97;116.93;;;;;;;;;;5022623;28;20261;-54
2022/09/17 07:39:59;;;;;;;194.50;114.67;;;;;;;;;;5021284;28;20220;-54
2022/09/17 07:42:26;;;;;;;211.17;119.23;;;;;;;;;;5018917;28;20184;-55
2022/09/17 07:44:52;;;;;;;290.93;159.10;;;;;;;;;;5016829;28;20404;-54
2022/09/17 07:47:18;;;;;;;163.07;112.87;;;;;;;;;;5016899;28;20273;-54
2022/09/17 07:49:44;;;;;;;177.20;118.40;;;;;;;;;;5025950;28;20250;-53
2022/09/17 07:52:10;;;;;;;181.03;117.03;;;;;;;;;;5021612;28;20181;-53
2022/09/17 07:54:36;;;;;;;152.97;105.70;;;;;;;;;;5028219;28;20559;-53
2022/09/17 07:57:03;;;;;;;172.50;112.30;;;;;;;;;;5022702;28;20176;-53
2022/09/17 07:59:29;;;;;;;169.97;106.90;;;;;;;;;;5019255;28;20184;-54
2022/09/17 08:01:55;;;;;;;178.87;113.07;;;;;;;;;;5025345;28;20608;-54
2022/09/17 08:04:21;;;;;;;197.53;123.90;;;;;;;;;;5018669;28;20237;-53
2022/09/17 08:06:47;;;;;;;197.63;122.10;;;;;;;;;;5016983;28;20633;-54
2022/09/17 08:09:14;;;;;;;184.73;119.70;;;;;;;;;;5023945;28;20197;-54
2022/09/17 08:11:40;;;;;;;171.00;115.70;;;;;;;;;;5017894;28;20267;-53
2022/09/17 08:14:09;;;;;;;178.30;118.13;;;;;;;;;;5006668;28;20197;-53
2022/09/17 08:16:35;;;;;;;144.03;107.27;;;;;;;;;;5016919;28;20968;-54
2022/09/17 08:19:02;;;;;;;178.17;118.67;;;;;;;;;;5017470;28;20193;-53
2022/09/17 08:21:28;;;;;;;184.50;119.93;;;;;;;;;;5019047;28;20173;-54
2022/09/17 08:23:53;;;;;;;176.87;116.10;;;;;;;;;;5023121;28;20522;-53
2022/09/17 08:26:21;;;;;;;175.20;117.10;;;;;;;;;;5021030;28;20307;-53
2022/09/17 08:28:53;;;;;;;177.87;119.03;;;;;;;;;;5021737;28;20536;-53
2022/09/17 08:31:20;;;;;;;178.37;117.33;;;;;;;;;;5021453;28;20545;-53
2022/09/17 08:33:46;;;;;;;222.73;133.53;;;;;;;;;;5018976;28;20184;-53
2022/09/17 08:36:13;;;;;;;150.17;107.07;;;;;;;;;;5012876;28;20181;-53
2022/09/17 08:38:39;;;;;;;181.23;117.23;;;;;;;;;;5011393;28;20180;-53
2022/09/17 08:41:05;;;;;;;148.67;106.73;;;;;;;;;;5018881;28;20664;-53
2022/09/17 08:43:33;;;;;;;139.83;100.83;;;;;;;;;;5024132;28;20215;-54
2022/09/17 08:46:00;;;;;;;133.27;105.33;;;;;;;;;;5032917;28;20214;-54
2022/09/17 08:48:31;;;;;;;181.33;118.80;;;;;;;;;;5021672;28;20234;-54
2022/09/17 08:50:57;;;;;;;129.47;100.90;;;;;;;;;;5026925;28;20215;-53
2022/09/17 08:53:28;;;;;;;177.67;116.30;;;;;;;;;;5019440;28;20180;-53
2022/09/17 08:56:11;;;;;;;163.57;113.20;;;;;;;;;;5018217;28;20291;-53
2022/09/17 08:58:56;;;;;;;135.40;103.57;;;;;;;;;;5021355;28;20572;-54
2022/09/17 09:01:31;;;;;;;165.20;110.43;;;;;;;;;;5016410;28;20196;-53
2022/09/17 09:04:12;;;;;;;195.70;124.93;;;;;;;;;;5015116;28;20204;-54
2022/09/17 09:06:50;;;;;;;138.00;104.13;;;;;;;;;;5007566;28;20184;-54
2022/09/17 09:09:17;;;;;;;185.13;120.00;;;;;;;;;;5019897;28;20235;-54
2022/09/17 09:11:45;;;;;;;153.60;109.97;;;;;;;;;;5024667;28;20633;-54
2022/09/17 09:14:18;;;;;;;182.13;120.53;;;;;;;;;;5018600;28;20204;-54
2022/09/17 09:16:44;;;;;;;142.45;105.30;;;;;;;;;;5018911;28;20712;-54
2022/09/17 09:19:28;;;;;;;151.17;107.63;;;;;;;;;;5023291;28;20184;-54
2022/09/17 09:22:04;;;;;;;140.97;107.27;;;;;;;;;;5029320;28;20224;-54
2022/09/17 09:24:50;;;;;;;143.93;106.10;;;;;;;;;;5024221;28;20204;-53
2022/09/17 09:27:17;;;;;;;171.83;114.77;;;;;;;;;;5022703;28;20192;-54
2022/09/17 09:29:49;;;;;;;179.30;118.10;;;;;;;;;;5021843;28;20561;-54
2022/09/17 09:32:20;;;;;;;182.00;118.93;;;;;;;;;;5017683;28;20192;-54
2022/09/17 09:34:47;;;;;;;188.67;123.97;;;;;;;;;;5007373;28;20742;-54
2022/09/17 09:37:23;;;;;;;153.20;109.63;;;;;;;;;;5025152;28;20192;-54
2022/09/17 09:39:50;;;;;;;225.37;134.00;;;;;;;;;;5019822;28;20184;-53
2022/09/17 09:42:16;;;;;;;186.90;124.73;;;;;;;;;;5021509;28;20486;-54
2022/09/17 09:44:42;;;;;;;193.75;124.00;;;;;;;;;;5016397;28;20292;-54
2022/09/17 09:47:14;;;;;;;185.60;120.80;;;;;;;;;;5010975;28;20189;-54
2022/09/17 09:49:52;;;;;;;193.50;121.80;;;;;;;;;;5012360;28;20564;-54
2022/09/17 09:52:18;;;;;;;143.70;109.45;;;;;;;;;;5024795;28;20585;-54
2022/09/17 09:54:55;;;;;;;214.73;131.45;;;;;;;;;;5014564;28;20215;-54
2022/09/17 09:57:30;;;;;;;221.43;135.73;;;;;;;;;;5009897;28;20199;-54
2022/09/17 10:00:28;;;;;;;153.50;111.33;;;;;;;;;;5020482;28;20194;-53
2022/09/17 10:03:16;;;;;;;195.68;124.15;;;;;;;;;;4988512;28;20274;-54
2022/09/17 10:05:54;;;;;;;212.43;131.90;;;;;;;;;;5018547;28;20285;-54
2022/09/17 10:08:20;;;;;;;195.87;123.13;;;;;;;;;;5014440;28;20886;-54
2022/09/17 10:10:58;;;;;;;158.30;109.77;;;;;;;;;;5021681;28;20216;-54
2022/09/17 10:13:24;;;;;;;163.87;110.30;;;;;;;;;;5017324;28;20187;-53
2022/09/17 10:15:50;;;;;;;204.00;123.53;;;;;;;;;;5004550;28;20201;-53
2022/09/17 10:18:21;;;;;;;270.10;146.47;;;;;;;;;;5011876;28;20250;-53
2022/09/17 10:21:00;;;;;;;166.13;109.97;;;;;;;;;;5012282;28;20216;-53
2022/09/17 10:23:28;;;;;;;167.70;110.00;;;;;;;;;;5024843;28;20679;-53
2022/09/17 10:25:54;;;;;;;192.63;118.73;;;;;;;;;;5016993;28;20231;-53
2022/09/17 10:28:40;;;;;;;170.63;114.83;;;;;;;;;;5026860;28;20544;-53
2022/09/17 10:31:09;;;;;;;160.33;108.17;;;;;;;;;;5020396;28;20311;-53
2022/09/17 10:33:37;;;;;;;156.67;108.77;;;;;;;;;;5014166;28;20199;-53
2022/09/17 10:36:05;;;;;;;153.23;107.75;;;;;;;;;;5018634;28;20381;-53
2022/09/17 10:38:35;;;;;;;180.13;120.07;;;;;;;;;;5012013;28;20176;-53
2022/09/17 10:41:23;;;;;;;215.88;134.32;;;;;;;;;;5015122;28;20377;-53
2022/09/17 10:43:49;;;;;;;203.27;123.97;;;;;;;;;;5016374;28;20653;-53
2022/09/17 10:46:17;;;;;;;200.15;122.57;;;;;;;;;;5020536;28;20688;-53
2022/09/17 10:48:45;;;;;;;252.90;140.73;;;;;;;;;;5012933;28;20192;-53
2022/09/17 10:51:19;;;;;;;182.77;119.17;;;;;;;;;;5015141;28;20472;-53
2022/09/17 10:53:59;;;;;;;192.10;119.38;;;;;;;;;;5018037;28;20206;-53
2022/09/17 10:56:35;;;;;;;191.55;116.90;;;;;;;;;;5020842;28;20188;-53
2022/09/17 10:59:20;;;;;;;187.75;120.82;;;;;;;;;;5028564;28;20651;-53
2022/09/17 11:02:02;;;;;;;179.00;114.20;;;;;;;;;;5010353;28;20188;-53
2022/09/17 11:04:34;;;;;;;192.77;117.17;;;;;;;;;;5014970;28;20204;-53
2022/09/17 11:07:06;;;;;;;176.65;115.00;;;;;;;;;;5023423;28;20176;-53
2022/09/17 11:09:31;;;;;;;201.00;125.45;;;;;;;;;;5024860;28;20266;-53
2022/09/17 11:12:17;;;;;;;204.17;125.13;;;;;;;;;;5014313;28;20181;-53
2022/09/17 11:14:51;;;;;;;166.53;116.40;;;;;;;;;;5015625;28;20255;-53
2022/09/17 11:17:55;;;;;;;222.68;130.93;;;;;;;;;;5000488;28;20177;-53
2022/09/17 11:20:36;;;;;;;248.43;140.02;;;;;;;;;;4901721;29;20215;-53
2022/09/17 11:23:22;;;;;;;174.30;113.53;;;;;;;;;;4911044;29;20247;-53
2022/09/17 11:25:55;;;;;;;232.43;135.82;;;;;;;;;;4973652;28;20212;-53
2022/09/17 11:28:30;;;;;;;306.30;163.93;;;;;;;;;;5002419;28;20698;-53
2022/09/17 11:31:14;;;;;;;307.92;156.55;;;;;;;;;;5010488;28;20551;-53
2022/09/17 11:33:40;;;;;;;280.20;150.70;;;;;;;;;;5005032;28;20190;-53
2022/09/17 11:36:29;;;;;;;302.10;157.20;;;;;;;;;;4997391;28;20181;-53
2022/09/17 11:38:57;;;;;;;231.30;127.35;;;;;;;;;;5007199;28;20204;-55
2022/09/17 11:41:26;;;;;;;198.35;120.20;;;;;;;;;;5020530;28;20676;-53
2022/09/17 11:43:52;;;;;;;250.30;140.13;;;;;;;;;;5014629;28;20191;-53
2022/09/17 11:46:29;;;;;;;236.75;141.05;;;;;;;;;;5012185;28;20176;-53
2022/09/17 11:49:08;;;;;;;321.05;163.90;;;;;;;;;;5005659;28;20228;-53
2022/09/17 11:51:36;;;;;;;203.00;123.70;;;;;;;;;;5012393;28;20675;-53
2022/09/17 11:54:06;;;;;;;216.43;126.20;;;;;;;;;;5019555;28;20203;-53
2022/09/17 11:56:43;;;;;;;224.45;128.43;;;;;;;;;;5020165;28;20184;-53
2022/09/17 11:59:12;;;;;;;148.97;107.47;;;;;;;;;;5009982;28;20180;-53
2022/09/17 12:01:42;;;;;;;187.85;117.70;;;;;;;;;;5010863;28;20677;-53
2022/09/17 12:04:27;;;;;;;183.45;114.80;;;;;;;;;;5020902;28;20255;-53
2022/09/17 12:06:59;;;;;;;197.57;120.97;;;;;;;;;;5019301;28;20196;-53
2022/09/17 12:09:26;;;;;;;199.73;118.57;;;;;;;;;;5021637;28;20302;-53
2022/09/17 12:12:11;;;;;;;224.33;127.73;;;;;;;;;;5028633;28;20302;-53
2022/09/17 12:14:49;;;;;;;192.67;120.47;;;;;;;;;;5018350;28;20201;-53
2022/09/17 12:17:24;;;;;;;185.77;117.90;;;;;;;;;;5014753;28;20196;-54
2022/09/17 12:19:54;;;;;;;256.60;140.23;;;;;;;;;;5010391;28;20567;-54
2022/09/17 12:22:34;;;;;;;235.90;136.00;;;;;;;;;;5012520;28;20802;-53
2022/09/17 12:25:01;;;;;;;228.20;132.07;;;;;;;;;;5020185;28;20295;-53
2022/09/17 12:27:41;;;;;;;222.37;126.83;;;;;;;;;;5017369;28;20184;-53
2022/09/17 12:30:14;;;;;;;239.33;133.10;;;;;;;;;;5019990;28;20211;-54
2022/09/17 12:32:56;;;;;;;218.17;126.70;;;;;;;;;;5017021;28;21268;-53
2022/09/17 12:35:28;;;;;;;219.77;126.77;;;;;;;;;;5012859;28;20338;-53
2022/09/17 12:38:09;;;;;;;225.50;129.37;;;;;;;;;;5014813;28;20443;-54
2022/09/17 12:40:54;;;;;;;212.03;123.90;;;;;;;;;;5014097;28;20238;-53
2022/09/17 12:43:32;;;;;;;232.68;129.20;;;;;;;;;;5022060;28;20188;-54
2022/09/17 12:46:08;;;;;;;215.00;126.83;;;;;;;;;;5015374;28;20294;-54
2022/09/17 12:48:51;;;;;;;281.10;151.97;;;;;;;;;;5014771;28;20184;-54
2022/09/17 12:51:25;;;;;;;245.50;139.30;;;;;;;;;;5015153;28;20211;-54
2022/09/17 12:53:55;;;;;;;297.38;158.95;;;;;;;;;;5004728;28;20180;-53
2022/09/17 12:56:21;;;;;;;288.20;150.80;;;;;;;;;;5013701;28;20188;-54
2022/09/17 12:59:01;;;;;;;323.17;165.65;;;;;;;;;;5011767;28;20188;-54
2022/09/17 13:01:30;;;;;;;326.43;172.33;;;;;;;;;;5008131;28;20254;-54
2022/09/17 13:04:11;;;;;;;349.17;181.53;;;;;;;;;;5016648;28;20287;-54
2022/09/17 13:07:00;;;;;;;303.30;161.18;;;;;;;;;;5013954;28;20207;-54
2022/09/17 13:09:54;;;;;;;157.52;102.43;;;;;;;;;;5008612;28;24063;-54
2022/09/17 13:12:25;;;;;;;163.00;105.43;;;;;;;;;;5017993;28;20249;-53
2022/09/17 13:15:02;;;;;;;167.07;106.57;;;;;;;;;;5014094;28;20243;-53
2022/09/17 13:17:33;;;;;;;190.23;117.72;;;;;;;;;;5006893;28;20349;-53
2022/09/17 13:20:02;;;;;;;170.65;105.03;;;;;;;;;;5008294;28;20180;-53
2022/09/17 13:22:33;;;;;;;111.88;92.95;;;;;;;;;;5024961;28;20203;-53
2022/09/17 13:25:08;;;;;;;194.57;106.35;;;;;;;;;;5009689;28;20319;-53
2022/09/17 13:27:37;;;;;;;135.48;85.22;;;;;;;;;;5013661;28;20188;-53
2022/09/17 13:30:04;;;;;;;145.50;84.30;;;;;;;;;;5013545;28;20208;-53
2022/09/17 13:32:37;;;;;;;157.75;80.28;;;;;;;;;;5007491;28;20412;-54
2022/09/17 13:35:07;;;;;;;84.65;65.45;;;;;;;;;;5011862;28;20323;-54
2022/09/17 13:37:35;;;;;;;121.88;71.15;;;;;;;;;;5010353;28;20191;-54
2022/09/17 13:40:01;;;;;;;102.03;75.93;;;;;;;;;;5023252;28;20257;-54
2022/09/17 13:42:32;;;;;;;113.40;79.50;;;;;;;;;;5028951;28;20229;-54
2022/09/17 13:45:01;;;;;;;148.30;84.90;;;;;;;;;;5016752;28;20215;-54
2022/09/17 13:47:46;;;;;;;154.63;91.20;;;;;;;;;;5004614;28;20672;-54
2022/09/17 13:50:23;;;;;;;147.70;91.30;;;;;;;;;;5012067;28;20207;-54
2022/09/17 13:52:49;;;;;;;;;;;;;;;;;;5016514;28;20179;-54
2022/09/17 13:55:34;;;;;;;111.05;85.68;;;;;;;;;;5015577;28;20051;-54
2022/09/17 13:58:02;;;;;;;209.15;114.57;;;;;;;;;;5008698;28;20194;-54
2022/09/17 14:00:46;;;;;;;325.65;137.32;;;;;;;;;;4994744;28;20172;-54
2022/09/17 14:03:32;;;;;;;123.03;87.22;;;;;;;;;;5018731;28;20195;-54
2022/09/17 14:06:20;;;;;;;109.72;85.20;;;;;;;;;;5022760;28;20203;-54
2022/09/17 14:08:46;;;;;;;128.25;86.68;;;;;;;;;;4998782;28;20192;-54
2022/09/17 14:11:21;;;;;;;150.32;89.43;;;;;;;;;;5021218;28;20230;-54
2022/09/17 14:13:51;;;;;;;81.20;71.55;;;;;;;;;;5025378;28;20257;-54
2022/09/17 14:16:35;;;;;;;122.60;83.45;;;;;;;;;;5022781;28;20384;-54